sensor_id;sensor_type;location;lat;lon;timestamp;pressure;altitude;pressure_sealevel;temperature;humidity
6224;BME280;3145;42.726;23.342;2024-03-08T00:00:05;73221.72;;;-142.70;84.62
6224;BME280;3145;42.726;23.342;2024-03-08T00:02:35;73217.69;;;-142.70;83.84
6224;BME280;3145;42.726;23.342;2024-03-08T00:05:02;73245.91;;;-142.70;82.71
6224;BME280;3145;42.726;23.342;2024-03-08T00:07:29;73274.13;;;-142.70;82.77
6224;BME280;3145;42.726;23.342;2024-03-08T00:09:57;73290.22;;;-142.70;83.32
6224;BME280;3145;42.726;23.342;2024-03-08T00:12:24;73282.16;;;-142.70;84.37
6224;BME280;3145;42.726;23.342;2024-03-08T00:14:52;73302.31;;;-142.70;85.67
6224;BME280;3145;42.726;23.342;2024-03-08T00:17:20;73296.28;;;-142.70;85.79
6224;BME280;3145;42.726;23.342;2024-03-08T00:19:48;73310.38;;;-142.70;86.60
6224;BME280;3145;42.726;23.342;2024-03-08T00:22:15;73314.41;;;-142.70;86.88
6224;BME280;3145;42.726;23.342;2024-03-08T00:24:42;73318.44;;;-142.70;86.89
6224;BME280;3145;42.726;23.342;2024-03-08T00:27:10;73342.63;;;-142.70;87.77
6224;BME280;3145;42.726;23.342;2024-03-08T00:29:37;73334.56;;;-142.70;88.55
6224;BME280;3145;42.726;23.342;2024-03-08T00:32:05;73346.66;;;-142.70;88.99
6224;BME280;3145;42.726;23.342;2024-03-08T00:34:35;73342.63;;;-142.70;89.32
6224;BME280;3145;42.726;23.342;2024-03-08T00:37:02;73350.69;;;-142.70;89.34
6224;BME280;3145;42.726;23.342;2024-03-08T00:39:28;73338.59;;;-142.70;89.28
6224;BME280;3145;42.726;23.342;2024-03-08T00:41:55;73334.56;;;-142.70;89.65
6224;BME280;3145;42.726;23.342;2024-03-08T00:44:23;73354.72;;;-142.70;89.71
6224;BME280;3145;42.726;23.342;2024-03-08T00:46:50;73354.72;;;-142.70;89.89
6224;BME280;3145;42.726;23.342;2024-03-08T00:49:16;73354.72;;;-142.70;90.01
6224;BME280;3145;42.726;23.342;2024-03-08T00:51:43;73352.69;;;-142.70;90.49
6224;BME280;3145;42.726;23.342;2024-03-08T00:54:10;73346.66;;;-142.70;90.41
6224;BME280;3145;42.726;23.342;2024-03-08T00:56:37;73360.75;;;-142.70;91.04
6224;BME280;3145;42.726;23.342;2024-03-08T00:59:04;73376.88;;;-142.70;92.08
6224;BME280;3145;42.726;23.342;2024-03-08T01:01:33;73384.94;;;-142.70;92.95
6224;BME280;3145;42.726;23.342;2024-03-08T01:04:00;73382.91;;;-142.70;93.80
6224;BME280;3145;42.726;23.342;2024-03-08T01:06:26;73390.97;;;-142.70;94.70
6224;BME280;3145;42.726;23.342;2024-03-08T01:08:53;73386.94;;;-142.70;95.50
6224;BME280;3145;42.726;23.342;2024-03-08T01:11:20;73378.88;;;-142.70;95.97
6224;BME280;3145;42.726;23.342;2024-03-08T01:13:46;73403.06;;;-142.70;96.49
6224;BME280;3145;42.726;23.342;2024-03-08T01:16:15;73386.94;;;-142.70;96.76
6224;BME280;3145;42.726;23.342;2024-03-08T01:18:43;73382.91;;;-142.70;96.94
6224;BME280;3145;42.726;23.342;2024-03-08T01:21:10;73372.84;;;-142.70;96.96
6224;BME280;3145;42.726;23.342;2024-03-08T01:23:37;73374.88;;;-142.70;96.51
6224;BME280;3145;42.726;23.342;2024-03-08T01:26:04;73374.88;;;-142.70;96.71
6224;BME280;3145;42.726;23.342;2024-03-08T01:28:31;73356.72;;;-142.70;96.31
6224;BME280;3145;42.726;23.342;2024-03-08T01:31:00;73340.59;;;-142.70;97.08
6224;BME280;3145;42.726;23.342;2024-03-08T01:33:27;73334.56;;;-142.70;96.20
6224;BME280;3145;42.726;23.342;2024-03-08T01:35:55;73326.50;;;-142.70;95.22
6224;BME280;3145;42.726;23.342;2024-03-08T01:38:22;73314.41;;;-142.70;95.07
6224;BME280;3145;42.726;23.342;2024-03-08T01:40:49;73292.25;;;-142.70;94.82
6224;BME280;3145;42.726;23.342;2024-03-08T01:43:18;73274.13;;;-142.70;95.02
6224;BME280;3145;42.726;23.342;2024-03-08T01:45:45;73251.94;;;-142.70;94.89
6224;BME280;3145;42.726;23.342;2024-03-08T01:48:12;73247.91;;;-142.70;94.44
6224;BME280;3145;42.726;23.342;2024-03-08T01:50:40;73231.81;;;-142.70;93.98
6224;BME280;3145;42.726;23.342;2024-03-08T01:53:09;73219.72;;;-142.70;93.92
6224;BME280;3145;42.726;23.342;2024-03-08T01:55:38;73203.59;;;-142.70;93.40
6224;BME280;3145;42.726;23.342;2024-03-08T01:58:05;73189.47;;;-142.70;93.30
6224;BME280;3145;42.726;23.342;2024-03-08T02:00:32;73179.41;;;-142.70;92.50
6224;BME280;3145;42.726;23.342;2024-03-08T02:03:00;73181.44;;;-142.70;92.19
6224;BME280;3145;42.726;23.342;2024-03-08T02:05:27;73189.47;;;-142.70;90.87
6224;BME280;3145;42.726;23.342;2024-03-08T02:07:54;73181.44;;;-142.70;90.46
6224;BME280;3145;42.726;23.342;2024-03-08T02:10:23;73185.47;;;-142.70;89.54
6224;BME280;3145;42.726;23.342;2024-03-08T02:12:50;73185.47;;;-142.70;88.66
6224;BME280;3145;42.726;23.342;2024-03-08T02:15:17;73189.47;;;-142.70;88.06
6224;BME280;3145;42.726;23.342;2024-03-08T02:17:45;73205.59;;;-142.70;86.11
6224;BME280;3145;42.726;23.342;2024-03-08T02:20:11;73209.63;;;-142.70;85.23
6224;BME280;3145;42.726;23.342;2024-03-08T02:22:40;73221.72;;;-142.70;84.13
6224;BME280;3145;42.726;23.342;2024-03-08T02:25:08;73225.75;;;-142.70;83.34
6224;BME280;3145;42.726;23.342;2024-03-08T02:27:35;73245.91;;;-142.70;82.67
6224;BME280;3145;42.726;23.342;2024-03-08T02:30:02;73270.09;;;-142.70;81.25
6224;BME280;3145;42.726;23.342;2024-03-08T02:32:28;73286.19;;;-142.70;81.52
6224;BME280;3145;42.726;23.342;2024-03-08T02:34:58;73286.19;;;-142.70;81.61
6224;BME280;3145;42.726;23.342;2024-03-08T02:37:25;73294.25;;;-142.70;80.41
6224;BME280;3145;42.726;23.342;2024-03-08T02:39:55;73298.28;;;-142.70;79.63
6224;BME280;3145;42.726;23.342;2024-03-08T02:42:22;73306.34;;;-142.70;79.07
6224;BME280;3145;42.726;23.342;2024-03-08T02:44:48;73322.47;;;-142.70;79.35
6224;BME280;3145;42.726;23.342;2024-03-08T02:47:15;73326.50;;;-142.70;79.26
6224;BME280;3145;42.726;23.342;2024-03-08T02:49:42;73332.53;;;-142.70;79.19
6224;BME280;3145;42.726;23.342;2024-03-08T02:52:09;73330.53;;;-142.70;78.99
6224;BME280;3145;42.726;23.342;2024-03-08T02:54:36;73342.63;;;-142.70;79.08
6224;BME280;3145;42.726;23.342;2024-03-08T02:57:04;73342.63;;;-142.70;78.46
6224;BME280;3145;42.726;23.342;2024-03-08T02:59:32;73334.56;;;-142.70;77.97
6224;BME280;3145;42.726;23.342;2024-03-08T03:01:59;73326.50;;;-142.70;78.37
6224;BME280;3145;42.726;23.342;2024-03-08T03:04:26;73342.63;;;-142.70;78.01
6224;BME280;3145;42.726;23.342;2024-03-08T03:06:53;73352.69;;;-142.70;77.68
6224;BME280;3145;42.726;23.342;2024-03-08T03:09:20;73346.66;;;-142.70;77.99
6224;BME280;3145;42.726;23.342;2024-03-08T03:11:53;73350.69;;;-142.70;78.25
6224;BME280;3145;42.726;23.342;2024-03-08T03:14:21;73354.72;;;-142.70;78.36
6224;BME280;3145;42.726;23.342;2024-03-08T03:16:48;73352.69;;;-142.70;77.80
6224;BME280;3145;42.726;23.342;2024-03-08T03:19:15;73358.75;;;-142.70;77.78
6224;BME280;3145;42.726;23.342;2024-03-08T03:21:42;73364.78;;;-142.70;77.84
6224;BME280;3145;42.726;23.342;2024-03-08T03:24:09;73374.88;;;-142.70;78.12
6224;BME280;3145;42.726;23.342;2024-03-08T03:26:36;73372.84;;;-142.70;78.60
6224;BME280;3145;42.726;23.342;2024-03-08T03:29:04;73370.84;;;-142.70;78.76
6224;BME280;3145;42.726;23.342;2024-03-08T03:31:35;73362.78;;;-142.70;79.09
6224;BME280;3145;42.726;23.342;2024-03-08T03:34:02;73366.81;;;-142.70;79.20
6224;BME280;3145;42.726;23.342;2024-03-08T03:36:29;73360.75;;;-142.70;79.50
6224;BME280;3145;42.726;23.342;2024-03-08T03:38:56;73368.81;;;-142.70;79.56
6224;BME280;3145;42.726;23.342;2024-03-08T03:41:35;73368.81;;;-142.70;79.20
6224;BME280;3145;42.726;23.342;2024-03-08T03:44:02;73370.84;;;-142.70;80.02
6224;BME280;3145;42.726;23.342;2024-03-08T03:46:28;73370.84;;;-142.70;79.53
6224;BME280;3145;42.726;23.342;2024-03-08T03:48:57;73374.88;;;-142.70;79.89
6224;BME280;3145;42.726;23.342;2024-03-08T03:51:24;73366.81;;;-142.70;79.76
6224;BME280;3145;42.726;23.342;2024-03-08T03:53:51;73382.91;;;-142.70;79.67
6224;BME280;3145;42.726;23.342;2024-03-08T03:56:18;73370.84;;;-142.70;80.13
6224;BME280;3145;42.726;23.342;2024-03-08T03:58:45;73366.81;;;-142.70;80.30
6224;BME280;3145;42.726;23.342;2024-03-08T04:01:12;73366.81;;;-142.70;80.28
6224;BME280;3145;42.726;23.342;2024-03-08T04:03:41;73358.75;;;-142.70;80.46
6224;BME280;3145;42.726;23.342;2024-03-08T04:06:09;73362.78;;;-142.70;80.06
6224;BME280;3145;42.726;23.342;2024-03-08T04:08:36;73358.75;;;-142.70;80.83
6224;BME280;3145;42.726;23.342;2024-03-08T04:11:03;73344.63;;;-142.70;80.71
6224;BME280;3145;42.726;23.342;2024-03-08T04:13:30;73354.72;;;-142.70;80.90
6224;BME280;3145;42.726;23.342;2024-03-08T04:15:56;73346.66;;;-142.70;80.02
6224;BME280;3145;42.726;23.342;2024-03-08T04:18:23;73350.69;;;-142.70;80.07
6224;BME280;3145;42.726;23.342;2024-03-08T04:20:50;73366.81;;;-142.70;80.73
6224;BME280;3145;42.726;23.342;2024-03-08T04:23:18;73370.84;;;-142.70;80.54
6224;BME280;3145;42.726;23.342;2024-03-08T04:25:45;73362.78;;;-142.70;80.83
6224;BME280;3145;42.726;23.342;2024-03-08T04:28:11;73362.78;;;-142.70;81.10
6224;BME280;3145;42.726;23.342;2024-03-08T04:30:39;73386.94;;;-142.70;80.86
6224;BME280;3145;42.726;23.342;2024-03-08T04:33:05;73370.84;;;-142.70;80.97
6224;BME280;3145;42.726;23.342;2024-03-08T04:35:34;73390.97;;;-142.70;81.19
6224;BME280;3145;42.726;23.342;2024-03-08T04:38:00;73429.28;;;-142.70;80.59
6224;BME280;3145;42.726;23.342;2024-03-08T04:40:28;73447.41;;;-142.70;81.38
6224;BME280;3145;42.726;23.342;2024-03-08T04:42:55;73427.25;;;-142.70;81.86
6224;BME280;3145;42.726;23.342;2024-03-08T04:45:22;73459.50;;;-142.70;81.79
6224;BME280;3145;42.726;23.342;2024-03-08T04:47:51;73465.53;;;-142.70;82.11
6224;BME280;3145;42.726;23.342;2024-03-08T04:50:17;73467.56;;;-142.70;82.60
6224;BME280;3145;42.726;23.342;2024-03-08T04:52:44;73469.56;;;-142.70;82.84
6224;BME280;3145;42.726;23.342;2024-03-08T04:55:11;73499.78;;;-142.70;83.15
6224;BME280;3145;42.726;23.342;2024-03-08T04:57:39;73515.91;;;-142.70;83.95
6224;BME280;3145;42.726;23.342;2024-03-08T05:00:08;73511.88;;;-142.70;84.14
6224;BME280;3145;42.726;23.342;2024-03-08T05:02:36;73523.97;;;-142.70;84.98
6224;BME280;3145;42.726;23.342;2024-03-08T05:05:04;73513.91;;;-142.70;85.03
6224;BME280;3145;42.726;23.342;2024-03-08T05:07:32;73528.00;;;-142.70;85.25
6224;BME280;3145;42.726;23.342;2024-03-08T05:09:59;73536.06;;;-142.70;85.78
6224;BME280;3145;42.726;23.342;2024-03-08T05:12:26;73556.22;;;-142.70;85.71
6224;BME280;3145;42.726;23.342;2024-03-08T05:14:54;73560.25;;;-142.70;85.24
6224;BME280;3145;42.726;23.342;2024-03-08T05:17:20;73572.34;;;-142.70;85.39
6224;BME280;3145;42.726;23.342;2024-03-08T05:19:49;73576.38;;;-142.70;85.63
6224;BME280;3145;42.726;23.342;2024-03-08T05:22:16;73578.38;;;-142.70;85.56
6224;BME280;3145;42.726;23.342;2024-03-08T05:24:43;73592.50;;;-142.70;85.92
6224;BME280;3145;42.726;23.342;2024-03-08T05:27:09;73592.50;;;-142.70;86.34
6224;BME280;3145;42.726;23.342;2024-03-08T05:29:36;73596.53;;;-142.70;87.07
6224;BME280;3145;42.726;23.342;2024-03-08T05:32:05;73604.56;;;-142.70;87.07
6224;BME280;3145;42.726;23.342;2024-03-08T05:34:32;73618.69;;;-142.70;87.19
6224;BME280;3145;42.726;23.342;2024-03-08T05:36:59;73640.84;;;-142.70;86.81
6224;BME280;3145;42.726;23.342;2024-03-08T05:39:26;73648.91;;;-142.70;87.44
6224;BME280;3145;42.726;23.342;2024-03-08T05:41:53;73636.81;;;-142.70;87.63
6224;BME280;3145;42.726;23.342;2024-03-08T05:44:21;73648.91;;;-142.70;87.95
6224;BME280;3145;42.726;23.342;2024-03-08T05:46:48;73652.94;;;-142.70;87.98
6224;BME280;3145;42.726;23.342;2024-03-08T05:49:17;73656.97;;;-142.70;88.47
6224;BME280;3145;42.726;23.342;2024-03-08T05:51:44;73656.97;;;-142.70;88.33
6224;BME280;3145;42.726;23.342;2024-03-08T05:54:13;73661.00;;;-142.70;88.53
6224;BME280;3145;42.726;23.342;2024-03-08T05:56:40;73665.03;;;-142.70;88.96
6224;BME280;3145;42.726;23.342;2024-03-08T05:59:08;73665.03;;;-142.70;88.88
6224;BME280;3145;42.726;23.342;2024-03-08T06:01:35;73661.00;;;-142.70;88.92
6224;BME280;3145;42.726;23.342;2024-03-08T06:04:03;73663.03;;;-142.70;88.91
6224;BME280;3145;42.726;23.342;2024-03-08T06:06:31;73671.09;;;-142.70;88.26
6224;BME280;3145;42.726;23.342;2024-03-08T06:08:58;73661.00;;;-142.70;88.39
6224;BME280;3145;42.726;23.342;2024-03-08T06:11:25;73665.03;;;-142.70;88.26
6224;BME280;3145;42.726;23.342;2024-03-08T06:13:52;73656.97;;;-142.70;88.19
6224;BME280;3145;42.726;23.342;2024-03-08T06:16:25;73659.00;;;-142.70;88.10
6224;BME280;3145;42.726;23.342;2024-03-08T06:18:55;73652.94;;;-142.70;88.33
6224;BME280;3145;42.726;23.342;2024-03-08T06:21:22;73646.91;;;-142.70;88.02
6224;BME280;3145;42.726;23.342;2024-03-08T06:23:52;73654.97;;;-142.70;88.68
6224;BME280;3145;42.726;23.342;2024-03-08T06:26:20;73652.94;;;-142.70;88.51
6224;BME280;3145;42.726;23.342;2024-03-08T06:28:47;73656.97;;;-142.70;88.46
6224;BME280;3145;42.726;23.342;2024-03-08T06:31:14;73640.84;;;-142.70;88.38
6224;BME280;3145;42.726;23.342;2024-03-08T06:33:41;73640.84;;;-142.70;88.27
6224;BME280;3145;42.726;23.342;2024-03-08T06:36:08;73644.88;;;-142.70;87.72
6224;BME280;3145;42.726;23.342;2024-03-08T06:38:37;73661.00;;;-142.70;87.67
6224;BME280;3145;42.726;23.342;2024-03-08T06:41:09;73654.97;;;-142.70;87.72
6224;BME280;3145;42.726;23.342;2024-03-08T06:43:40;73626.75;;;-142.70;87.43
6224;BME280;3145;42.726;23.342;2024-03-08T06:46:07;73620.69;;;-142.70;86.89
6224;BME280;3145;42.726;23.342;2024-03-08T06:48:34;73626.75;;;-142.70;86.27
6224;BME280;3145;42.726;23.342;2024-03-08T06:51:03;73628.75;;;-142.70;86.58
6224;BME280;3145;42.726;23.342;2024-03-08T06:53:29;73628.75;;;-142.70;86.16
6224;BME280;3145;42.726;23.342;2024-03-08T06:55:57;73620.69;;;-142.70;85.01
6224;BME280;3145;42.726;23.342;2024-03-08T06:58:25;73632.78;;;-142.70;85.00
6224;BME280;3145;42.726;23.342;2024-03-08T07:00:53;73612.63;;;-142.70;85.26
6224;BME280;3145;42.726;23.342;2024-03-08T07:03:23;73600.56;;;-142.70;85.22
6224;BME280;3145;42.726;23.342;2024-03-08T07:05:51;73578.38;;;-142.70;84.90
6224;BME280;3145;42.726;23.342;2024-03-08T07:08:18;73570.31;;;-142.70;84.52
6224;BME280;3145;42.726;23.342;2024-03-08T07:10:47;73574.34;;;-142.70;83.44
6224;BME280;3145;42.726;23.342;2024-03-08T07:13:14;73586.44;;;-142.70;82.62
6224;BME280;3145;42.726;23.342;2024-03-08T07:15:43;73568.31;;;-142.70;82.12
6224;BME280;3145;42.726;23.342;2024-03-08T07:18:11;73570.31;;;-142.70;82.22
6224;BME280;3145;42.726;23.342;2024-03-08T07:20:40;73576.38;;;-142.70;82.13
6224;BME280;3145;42.726;23.342;2024-03-08T07:23:06;73568.31;;;-142.70;81.57
6224;BME280;3145;42.726;23.342;2024-03-08T07:25:34;73560.25;;;-142.70;81.81
6224;BME280;3145;42.726;23.342;2024-03-08T07:28:00;73523.97;;;-142.70;82.29
6224;BME280;3145;42.726;23.342;2024-03-08T07:30:27;73521.97;;;-142.70;82.26
6224;BME280;3145;42.726;23.342;2024-03-08T07:33:24;73540.09;;;-142.70;80.75
6224;BME280;3145;42.726;23.342;2024-03-08T07:35:52;73544.13;;;-142.70;80.47
6224;BME280;3145;42.726;23.342;2024-03-08T07:38:19;73523.97;;;-142.70;80.79
6224;BME280;3145;42.726;23.342;2024-03-08T07:40:49;73515.91;;;-142.70;80.52
6224;BME280;3145;42.726;23.342;2024-03-08T07:43:21;73497.78;;;-142.70;80.22
6224;BME280;3145;42.726;23.342;2024-03-08T07:45:48;73499.78;;;-142.70;80.35
6224;BME280;3145;42.726;23.342;2024-03-08T07:48:16;73481.66;;;-142.70;80.07
6224;BME280;3145;42.726;23.342;2024-03-08T07:50:44;73495.75;;;-142.70;78.17
6224;BME280;3145;42.726;23.342;2024-03-08T07:53:11;73491.72;;;-142.70;76.90
6224;BME280;3145;42.726;23.342;2024-03-08T07:55:38;73459.50;;;-142.70;76.98
6224;BME280;3145;42.726;23.342;2024-03-08T07:58:07;73429.28;;;-142.70;76.64
6224;BME280;3145;42.726;23.342;2024-03-08T08:00:36;73419.19;;;-142.70;75.93
6224;BME280;3145;42.726;23.342;2024-03-08T08:03:03;73411.13;;;-142.70;75.74
6224;BME280;3145;42.726;23.342;2024-03-08T08:05:30;73366.81;;;-142.70;74.87
6224;BME280;3145;42.726;23.342;2024-03-08T08:08:02;73308.38;;;-142.70;75.38
6224;BME280;3145;42.726;23.342;2024-03-08T08:10:31;73282.16;;;-142.70;72.94
6224;BME280;3145;42.726;23.342;2024-03-08T08:12:58;73249.94;;;-142.70;70.87
6224;BME280;3145;42.726;23.342;2024-03-08T08:15:24;73243.88;;;-142.70;69.31
6224;BME280;3145;42.726;23.342;2024-03-08T08:17:53;73251.94;;;-142.70;69.00
6224;BME280;3145;42.726;23.342;2024-03-08T08:20:20;73181.44;;;-142.70;69.61
6224;BME280;3145;42.726;23.342;2024-03-08T08:22:48;73125.00;;;-142.70;68.49
6224;BME280;3145;42.726;23.342;2024-03-08T08:25:17;73137.09;;;-142.70;66.55
6224;BME280;3145;42.726;23.342;2024-03-08T08:27:45;73120.97;;;-142.70;65.69
6224;BME280;3145;42.726;23.342;2024-03-08T08:30:13;73129.03;;;-142.70;64.27
6224;BME280;3145;42.726;23.342;2024-03-08T08:32:39;73167.31;;;-142.70;62.81
6224;BME280;3145;42.726;23.342;2024-03-08T08:35:08;73201.56;;;-142.70;63.11
6224;BME280;3145;42.726;23.342;2024-03-08T08:37:38;73179.41;;;-142.70;63.35
6224;BME280;3145;42.726;23.342;2024-03-08T08:40:06;73149.19;;;-142.70;62.91
6224;BME280;3145;42.726;23.342;2024-03-08T08:42:37;73215.69;;;-142.70;60.63
6224;BME280;3145;42.726;23.342;2024-03-08T08:45:05;73183.44;;;-142.70;62.16
6224;BME280;3145;42.726;23.342;2024-03-08T08:47:34;73131.06;;;-142.70;62.20
6224;BME280;3145;42.726;23.342;2024-03-08T08:50:00;73125.00;;;-142.70;61.29
6224;BME280;3145;42.726;23.342;2024-03-08T08:52:28;73127.03;;;-142.70;59.32
6224;BME280;3145;42.726;23.342;2024-03-08T08:54:55;73074.63;;;-142.70;59.95
6224;BME280;3145;42.726;23.342;2024-03-08T08:57:22;73112.91;;;-142.70;57.61
6224;BME280;3145;42.726;23.342;2024-03-08T08:59:50;73147.16;;;-142.70;57.97
6224;BME280;3145;42.726;23.342;2024-03-08T09:02:17;73098.81;;;-142.70;58.75
6224;BME280;3145;42.726;23.342;2024-03-08T09:04:46;73100.84;;;-142.70;57.06
6224;BME280;3145;42.726;23.342;2024-03-08T09:07:13;73092.78;;;-142.70;57.26
6224;BME280;3145;42.726;23.342;2024-03-08T09:09:42;73052.47;;;-142.70;57.18
6224;BME280;3145;42.726;23.342;2024-03-08T09:12:09;73024.28;;;-142.70;56.31
6224;BME280;3145;42.726;23.342;2024-03-08T09:14:38;72996.06;;;-142.70;55.29
6224;BME280;3145;42.726;23.342;2024-03-08T09:17:06;72949.72;;;-142.70;55.62
6224;BME280;3145;42.726;23.342;2024-03-08T09:19:34;72943.69;;;-142.70;54.38
6224;BME280;3145;42.726;23.342;2024-03-08T09:22:01;72931.59;;;-142.70;53.74
6224;BME280;3145;42.726;23.342;2024-03-08T09:24:29;72913.47;;;-142.70;51.68
6224;BME280;3145;42.726;23.342;2024-03-08T09:26:56;72907.41;;;-142.70;50.54
6224;BME280;3145;42.726;23.342;2024-03-08T09:29:24;72927.56;;;-142.70;52.59
6224;BME280;3145;42.726;23.342;2024-03-08T09:31:50;72996.06;;;-142.70;51.37
6224;BME280;3145;42.726;23.342;2024-03-08T09:34:18;73016.22;;;-142.70;52.85
6224;BME280;3145;42.726;23.342;2024-03-08T09:36:45;72963.81;;;-142.70;53.00
6224;BME280;3145;42.726;23.342;2024-03-08T09:39:12;72957.78;;;-142.70;53.42
6224;BME280;3145;42.726;23.342;2024-03-08T09:41:42;73032.31;;;-142.70;51.03
6224;BME280;3145;42.726;23.342;2024-03-08T09:44:09;73036.34;;;-142.70;52.87
6224;BME280;3145;42.726;23.342;2024-03-08T09:46:36;73000.09;;;-142.70;54.12
6224;BME280;3145;42.726;23.342;2024-03-08T09:49:02;72959.78;;;-142.70;53.57
6224;BME280;3145;42.726;23.342;2024-03-08T09:51:33;72951.75;;;-142.70;50.84
6224;BME280;3145;42.726;23.342;2024-03-08T09:54:01;72903.38;;;-142.70;50.27
6224;BME280;3145;42.726;23.342;2024-03-08T09:56:31;72887.25;;;-142.70;49.13
6224;BME280;3145;42.726;23.342;2024-03-08T09:58:59;72842.94;;;-142.70;48.32
6224;BME280;3145;42.726;23.342;2024-03-08T10:01:49;72818.75;;;-142.70;47.59
6224;BME280;3145;42.726;23.342;2024-03-08T10:04:17;72855.03;;;-142.70;46.72
6224;BME280;3145;42.726;23.342;2024-03-08T10:06:46;72967.84;;;-142.70;46.73
6224;BME280;3145;42.726;23.342;2024-03-08T10:09:14;72955.78;;;-142.70;46.70
6224;BME280;3145;42.726;23.342;2024-03-08T10:11:42;72953.75;;;-142.70;46.51
6224;BME280;3145;42.726;23.342;2024-03-08T10:14:09;72943.69;;;-142.70;48.89
6224;BME280;3145;42.726;23.342;2024-03-08T10:16:36;72889.28;;;-142.70;46.09
6224;BME280;3145;42.726;23.342;2024-03-08T10:19:02;72863.09;;;-142.70;45.20
6224;BME280;3145;42.726;23.342;2024-03-08T10:21:31;72887.25;;;-142.70;46.51
6224;BME280;3145;42.726;23.342;2024-03-08T10:24:02;72919.50;;;-142.70;46.82
6224;BME280;3145;42.726;23.342;2024-03-08T10:26:30;72929.56;;;-142.70;47.58
6224;BME280;3145;42.726;23.342;2024-03-08T10:28:57;72945.69;;;-142.70;46.40
6224;BME280;3145;42.726;23.342;2024-03-08T10:31:24;72927.56;;;-142.70;46.16
6224;BME280;3145;42.726;23.342;2024-03-08T10:33:51;72867.13;;;-142.70;46.33
6224;BME280;3145;42.726;23.342;2024-03-08T10:36:17;72851.00;;;-142.70;47.50
6224;BME280;3145;42.726;23.342;2024-03-08T10:38:45;72913.47;;;-142.70;45.68
6224;BME280;3145;42.726;23.342;2024-03-08T10:41:14;72939.66;;;-142.70;46.94
6224;BME280;3145;42.726;23.342;2024-03-08T10:43:56;72885.25;;;-142.70;48.66
6224;BME280;3145;42.726;23.342;2024-03-08T10:46:40;72826.81;;;-142.70;48.28
6224;BME280;3145;42.726;23.342;2024-03-08T10:49:16;72782.50;;;-142.70;45.78
6224;BME280;3145;42.726;23.342;2024-03-08T10:51:44;72786.53;;;-142.70;45.09
6224;BME280;3145;42.726;23.342;2024-03-08T10:54:14;72780.50;;;-142.70;46.23
6224;BME280;3145;42.726;23.342;2024-03-08T10:56:44;72754.28;;;-142.70;45.51
6224;BME280;3145;42.726;23.342;2024-03-08T10:59:12;72778.47;;;-142.70;44.94
6224;BME280;3145;42.726;23.342;2024-03-08T11:01:39;72861.06;;;-142.70;44.41
6224;BME280;3145;42.726;23.342;2024-03-08T11:04:06;72947.72;;;-142.70;46.66
6224;BME280;3145;42.726;23.342;2024-03-08T11:06:42;72973.91;;;-142.70;48.14
6224;BME280;3145;42.726;23.342;2024-03-08T11:09:27;73032.31;;;-142.70;47.74
6224;BME280;3145;42.726;23.342;2024-03-08T11:12:21;72911.44;;;-142.70;47.65
6224;BME280;3145;42.726;23.342;2024-03-08T11:14:51;72863.09;;;-142.70;47.15
6224;BME280;3145;42.726;23.342;2024-03-08T11:17:21;72865.09;;;-142.70;47.64
6224;BME280;3145;42.726;23.342;2024-03-08T11:19:48;72784.53;;;-142.70;45.63
6224;BME280;3145;42.726;23.342;2024-03-08T11:22:21;72699.91;;;-142.70;45.31
6224;BME280;3145;42.726;23.342;2024-03-08T11:24:50;72730.13;;;-142.70;42.81
6224;BME280;3145;42.726;23.342;2024-03-08T11:27:17;72822.78;;;-142.70;43.00
6224;BME280;3145;42.726;23.342;2024-03-08T11:29:59;72871.16;;;-142.70;44.78
6224;BME280;3145;42.726;23.342;2024-03-08T11:32:27;72911.44;;;-142.70;45.98
6224;BME280;3145;42.726;23.342;2024-03-08T11:34:55;72935.63;;;-142.70;46.31
6224;BME280;3145;42.726;23.342;2024-03-08T11:37:23;72931.59;;;-142.70;47.01
6224;BME280;3145;42.726;23.342;2024-03-08T11:39:50;72911.44;;;-142.70;46.76
6224;BME280;3145;42.726;23.342;2024-03-08T11:42:18;72877.19;;;-142.70;46.91
6224;BME280;3145;42.726;23.342;2024-03-08T11:44:47;72883.25;;;-142.70;46.53
6224;BME280;3145;42.726;23.342;2024-03-08T11:47:15;72895.31;;;-142.70;47.56
6224;BME280;3145;42.726;23.342;2024-03-08T11:49:41;72891.28;;;-142.70;46.82
6224;BME280;3145;42.726;23.342;2024-03-08T11:52:10;72903.38;;;-142.70;46.66
6224;BME280;3145;42.726;23.342;2024-03-08T11:54:39;72905.41;;;-142.70;46.26
6224;BME280;3145;42.726;23.342;2024-03-08T11:57:06;72895.31;;;-142.70;45.55
6224;BME280;3145;42.726;23.342;2024-03-08T11:59:35;72887.25;;;-142.70;45.61
6224;BME280;3145;42.726;23.342;2024-03-08T12:02:04;72919.50;;;-142.70;46.76
6224;BME280;3145;42.726;23.342;2024-03-08T12:04:32;72927.56;;;-142.70;48.01
6224;BME280;3145;42.726;23.342;2024-03-08T12:07:02;72929.56;;;-142.70;48.57
6224;BME280;3145;42.726;23.342;2024-03-08T12:09:34;72967.84;;;-142.70;48.25
6224;BME280;3145;42.726;23.342;2024-03-08T12:12:01;73012.19;;;-142.70;49.41
6224;BME280;3145;42.726;23.342;2024-03-08T12:14:29;73014.19;;;-142.70;49.55
6224;BME280;3145;42.726;23.342;2024-03-08T12:16:55;73002.09;;;-142.70;49.50
6224;BME280;3145;42.726;23.342;2024-03-08T12:19:25;72961.81;;;-142.70;49.65
6224;BME280;3145;42.726;23.342;2024-03-08T12:21:51;72971.88;;;-142.70;49.70
6224;BME280;3145;42.726;23.342;2024-03-08T12:24:18;72947.72;;;-142.70;49.05
6224;BME280;3145;42.726;23.342;2024-03-08T12:26:47;72975.91;;;-142.70;48.67
6224;BME280;3145;42.726;23.342;2024-03-08T12:29:19;72949.72;;;-142.70;48.68
6224;BME280;3145;42.726;23.342;2024-03-08T12:31:48;72929.56;;;-142.70;47.37
6224;BME280;3145;42.726;23.342;2024-03-08T12:34:20;72919.50;;;-142.70;48.09
6224;BME280;3145;42.726;23.342;2024-03-08T12:36:49;72905.41;;;-142.70;47.69
6224;BME280;3145;42.726;23.342;2024-03-08T12:39:19;72969.88;;;-142.70;48.85
6224;BME280;3145;42.726;23.342;2024-03-08T12:41:48;72988.00;;;-142.70;48.74
6224;BME280;3145;42.726;23.342;2024-03-08T12:44:17;73008.16;;;-142.70;48.35
6224;BME280;3145;42.726;23.342;2024-03-08T12:46:44;73004.13;;;-142.70;48.63
6224;BME280;3145;42.726;23.342;2024-03-08T12:49:11;72981.97;;;-142.70;49.30
6224;BME280;3145;42.726;23.342;2024-03-08T12:51:38;72979.94;;;-142.70;47.43
6224;BME280;3145;42.726;23.342;2024-03-08T12:54:07;72953.75;;;-142.70;48.25